sensor_id;sensor_type;location;lat;lon;timestamp;P1;durP1;ratioP1;P2;durP2;ratioP2
5704;SDS011;2877;48.238;11.160;2023-11-25T00:00:15;1.13;;;0.97;;
5704;SDS011;2877;48.238;11.160;2023-11-25T00:02:42;1.40;;;1.00;;
5704;SDS011;2877;48.238;11.160;2023-11-25T00:05:08;0.83;;;0.83;;
5704;SDS011;2877;48.238;11.160;2023-11-25T00:07:34;3.03;;;1.20;;
5704;SDS011;2877;48.238;11.160;2023-11-25T00:09:59;1.03;;;0.97;;
5704;SDS011;2877;48.238;11.160;2023-11-25T00:12:25;1.70;;;1.20;;
5704;SDS011;2877;48.238;11.160;2023-11-25T00:14:51;0.80;;;0.70;;
5704;SDS011;2877;48.238;11.160;2023-11-25T00:17:16;1.43;;;0.80;;
5704;SDS011;2877;48.238;11.160;2023-11-25T00:19:42;3.10;;;0.77;;
5704;SDS011;2877;48.238;11.160;2023-11-25T00:22:08;1.20;;;1.10;;
5704;SDS011;2877;48.238;11.160;2023-11-25T00:24:34;1.00;;;0.80;;
5704;SDS011;2877;48.238;11.160;2023-11-25T00:27:00;0.60;;;0.60;;
5704;SDS011;2877;48.238;11.160;2023-11-25T00:29:26;4.10;;;1.00;;
5704;SDS011;2877;48.238;11.160;2023-11-25T00:31:53;0.77;;;0.77;;
5704;SDS011;2877;48.238;11.160;2023-11-25T00:34:22;0.80;;;0.77;;
5704;SDS011;2877;48.238;11.160;2023-11-25T00:36:49;0.60;;;0.60;;
5704;SDS011;2877;48.238;11.160;2023-11-25T00:39:16;0.63;;;0.63;;
5704;SDS011;2877;48.238;11.160;2023-11-25T00:41:42;1.17;;;0.80;;
5704;SDS011;2877;48.238;11.160;2023-11-25T00:44:08;1.10;;;1.00;;
5704;SDS011;2877;48.238;11.160;2023-11-25T00:46:33;0.60;;;0.60;;
5704;SDS011;2877;48.238;11.160;2023-11-25T00:48:59;0.60;;;0.60;;
5704;SDS011;2877;48.238;11.160;2023-11-25T00:51:25;4.50;;;0.73;;
5704;SDS011;2877;48.238;11.160;2023-11-25T00:53:50;0.60;;;0.60;;
5704;SDS011;2877;48.238;11.160;2023-11-25T00:56:16;0.50;;;0.50;;
5704;SDS011;2877;48.238;11.160;2023-11-25T00:58:41;0.70;;;0.70;;
5704;SDS011;2877;48.238;11.160;2023-11-25T01:01:07;0.67;;;0.67;;
5704;SDS011;2877;48.238;11.160;2023-11-25T01:03:33;0.43;;;0.43;;
5704;SDS011;2877;48.238;11.160;2023-11-25T01:05:58;0.73;;;0.60;;
5704;SDS011;2877;48.238;11.160;2023-11-25T01:08:26;0.70;;;0.70;;
5704;SDS011;2877;48.238;11.160;2023-11-25T01:10:54;0.80;;;0.80;;
5704;SDS011;2877;48.238;11.160;2023-11-25T01:13:19;0.60;;;0.60;;
5704;SDS011;2877;48.238;11.160;2023-11-25T01:15:45;0.80;;;0.80;;
5704;SDS011;2877;48.238;11.160;2023-11-25T01:18:11;1.73;;;0.90;;
5704;SDS011;2877;48.238;11.160;2023-11-25T01:20:36;0.60;;;0.40;;
5704;SDS011;2877;48.238;11.160;2023-11-25T01:23:02;1.50;;;1.00;;
5704;SDS011;2877;48.238;11.160;2023-11-25T01:25:27;1.37;;;1.27;;
5704;SDS011;2877;48.238;11.160;2023-11-25T01:27:53;0.90;;;0.90;;
5704;SDS011;2877;48.238;11.160;2023-11-25T01:30:23;2.10;;;0.40;;
5704;SDS011;2877;48.238;11.160;2023-11-25T01:32:49;0.30;;;0.30;;
5704;SDS011;2877;48.238;11.160;2023-11-25T01:35:15;0.30;;;0.30;;
5704;SDS011;2877;48.238;11.160;2023-11-25T01:37:40;0.30;;;0.30;;
5704;SDS011;2877;48.238;11.160;2023-11-25T01:40:06;0.30;;;0.30;;
5704;SDS011;2877;48.238;11.160;2023-11-25T01:42:35;0.73;;;0.30;;
5704;SDS011;2877;48.238;11.160;2023-11-25T01:45:02;0.30;;;0.30;;
5704;SDS011;2877;48.238;11.160;2023-11-25T01:47:29;0.30;;;0.30;;
5704;SDS011;2877;48.238;11.160;2023-11-25T01:49:56;0.50;;;0.50;;
5704;SDS011;2877;48.238;11.160;2023-11-25T01:52:22;0.40;;;0.40;;
5704;SDS011;2877;48.238;11.160;2023-11-25T01:54:50;0.30;;;0.30;;
5704;SDS011;2877;48.238;11.160;2023-11-25T01:57:16;0.33;;;0.33;;
5704;SDS011;2877;48.238;11.160;2023-11-25T01:59:43;0.50;;;0.50;;
5704;SDS011;2877;48.238;11.160;2023-11-25T02:02:11;0.50;;;0.50;;
5704;SDS011;2877;48.238;11.160;2023-11-25T02:04:40;0.50;;;0.30;;
5704;SDS011;2877;48.238;11.160;2023-11-25T02:07:07;0.50;;;0.50;;
5704;SDS011;2877;48.238;11.160;2023-11-25T02:09:35;0.40;;;0.40;;
5704;SDS011;2877;48.238;11.160;2023-11-25T02:12:01;0.50;;;0.40;;
5704;SDS011;2877;48.238;11.160;2023-11-25T02:14:27;1.13;;;0.50;;
5704;SDS011;2877;48.238;11.160;2023-11-25T02:16:53;0.50;;;0.50;;
5704;SDS011;2877;48.238;11.160;2023-11-25T02:19:20;0.40;;;0.40;;
5704;SDS011;2877;48.238;11.160;2023-11-25T02:21:47;1.13;;;0.40;;
5704;SDS011;2877;48.238;11.160;2023-11-25T02:24:13;1.13;;;0.40;;
5704;SDS011;2877;48.238;11.160;2023-11-25T02:26:39;0.50;;;0.50;;
5704;SDS011;2877;48.238;11.160;2023-11-25T02:29:04;0.30;;;0.30;;
5704;SDS011;2877;48.238;11.160;2023-11-25T02:31:30;0.30;;;0.30;;
5704;SDS011;2877;48.238;11.160;2023-11-25T02:33:57;0.80;;;0.43;;
5704;SDS011;2877;48.238;11.160;2023-11-25T02:36:23;0.40;;;0.40;;
5704;SDS011;2877;48.238;11.160;2023-11-25T02:38:49;0.60;;;0.60;;
5704;SDS011;2877;48.238;11.160;2023-11-25T02:41:14;0.40;;;0.40;;
5704;SDS011;2877;48.238;11.160;2023-11-25T02:43:40;0.70;;;0.63;;
5704;SDS011;2877;48.238;11.160;2023-11-25T02:46:06;1.60;;;0.60;;
5704;SDS011;2877;48.238;11.160;2023-11-25T02:48:33;0.30;;;0.30;;
5704;SDS011;2877;48.238;11.160;2023-11-25T02:51:00;0.40;;;0.40;;
5704;SDS011;2877;48.238;11.160;2023-11-25T02:53:26;0.97;;;0.77;;
5704;SDS011;2877;48.238;11.160;2023-11-25T02:55:51;0.97;;;0.60;;
5704;SDS011;2877;48.238;11.160;2023-11-25T02:58:17;1.17;;;0.87;;
5704;SDS011;2877;48.238;11.160;2023-11-25T03:00:43;0.83;;;0.80;;
5704;SDS011;2877;48.238;11.160;2023-11-25T03:03:09;6.83;;;0.70;;
5704;SDS011;2877;48.238;11.160;2023-11-25T03:05:38;1.00;;;0.57;;
5704;SDS011;2877;48.238;11.160;2023-11-25T03:08:07;1.83;;;0.60;;
5704;SDS011;2877;48.238;11.160;2023-11-25T03:10:35;0.30;;;0.30;;
5704;SDS011;2877;48.238;11.160;2023-11-25T03:13:00;1.17;;;0.60;;
5704;SDS011;2877;48.238;11.160;2023-11-25T03:15:26;0.30;;;0.30;;
5704;SDS011;2877;48.238;11.160;2023-11-25T03:17:51;0.70;;;0.70;;
5704;SDS011;2877;48.238;11.160;2023-11-25T03:20:17;1.10;;;0.47;;
5704;SDS011;2877;48.238;11.160;2023-11-25T03:22:42;0.83;;;0.60;;
5704;SDS011;2877;48.238;11.160;2023-11-25T03:25:11;0.90;;;0.63;;
5704;SDS011;2877;48.238;11.160;2023-11-25T03:27:39;0.63;;;0.63;;
5704;SDS011;2877;48.238;11.160;2023-11-25T03:30:04;0.50;;;0.50;;
5704;SDS011;2877;48.238;11.160;2023-11-25T03:32:33;0.80;;;0.50;;
5704;SDS011;2877;48.238;11.160;2023-11-25T03:34:59;0.43;;;0.43;;
5704;SDS011;2877;48.238;11.160;2023-11-25T03:37:26;0.70;;;0.70;;
5704;SDS011;2877;48.238;11.160;2023-11-25T03:39:52;0.40;;;0.40;;
5704;SDS011;2877;48.238;11.160;2023-11-25T03:42:18;1.47;;;0.80;;
5704;SDS011;2877;48.238;11.160;2023-11-25T03:44:45;1.80;;;0.60;;
5704;SDS011;2877;48.238;11.160;2023-11-25T03:47:11;1.53;;;1.10;;
5704;SDS011;2877;48.238;11.160;2023-11-25T03:49:38;0.67;;;0.50;;
5704;SDS011;2877;48.238;11.160;2023-11-25T03:52:04;1.47;;;0.57;;
5704;SDS011;2877;48.238;11.160;2023-11-25T03:54:30;0.30;;;0.30;;
5704;SDS011;2877;48.238;11.160;2023-11-25T03:56:58;0.90;;;0.83;;
5704;SDS011;2877;48.238;11.160;2023-11-25T03:59:24;1.67;;;0.53;;
5704;SDS011;2877;48.238;11.160;2023-11-25T04:01:50;0.73;;;0.37;;
5704;SDS011;2877;48.238;11.160;2023-11-25T04:04:16;0.63;;;0.60;;
5704;SDS011;2877;48.238;11.160;2023-11-25T04:06:41;0.70;;;0.70;;
5704;SDS011;2877;48.238;11.160;2023-11-25T04:09:07;1.20;;;0.50;;
5704;SDS011;2877;48.238;11.160;2023-11-25T04:11:33;1.60;;;0.77;;
5704;SDS011;2877;48.238;11.160;2023-11-25T04:13:58;0.73;;;0.70;;
5704;SDS011;2877;48.238;11.160;2023-11-25T04:16:24;0.70;;;0.50;;
5704;SDS011;2877;48.238;11.160;2023-11-25T04:18:50;1.83;;;0.40;;
5704;SDS011;2877;48.238;11.160;2023-11-25T04:21:17;0.83;;;0.50;;
5704;SDS011;2877;48.238;11.160;2023-11-25T04:23:46;0.40;;;0.40;;
5704;SDS011;2877;48.238;11.160;2023-11-25T04:26:13;3.40;;;0.50;;
5704;SDS011;2877;48.238;11.160;2023-11-25T04:28:39;1.70;;;0.60;;
5704;SDS011;2877;48.238;11.160;2023-11-25T04:31:04;0.50;;;0.50;;
5704;SDS011;2877;48.238;11.160;2023-11-25T04:33:30;0.50;;;0.50;;
5704;SDS011;2877;48.238;11.160;2023-11-25T04:35:56;0.40;;;0.40;;
5704;SDS011;2877;48.238;11.160;2023-11-25T04:38:21;0.70;;;0.70;;
5704;SDS011;2877;48.238;11.160;2023-11-25T04:40:47;0.60;;;0.40;;
5704;SDS011;2877;48.238;11.160;2023-11-25T04:43:12;1.47;;;0.47;;
5704;SDS011;2877;48.238;11.160;2023-11-25T04:45:38;0.70;;;0.60;;
5704;SDS011;2877;48.238;11.160;2023-11-25T04:48:03;0.80;;;0.60;;
5704;SDS011;2877;48.238;11.160;2023-11-25T04:50:29;1.60;;;0.40;;
5704;SDS011;2877;48.238;11.160;2023-11-25T04:52:55;0.40;;;0.40;;
5704;SDS011;2877;48.238;11.160;2023-11-25T04:55:20;0.30;;;0.30;;
5704;SDS011;2877;48.238;11.160;2023-11-25T04:57:48;2.63;;;0.53;;
5704;SDS011;2877;48.238;11.160;2023-11-25T05:00:14;0.70;;;0.50;;
5704;SDS011;2877;48.238;11.160;2023-11-25T05:02:42;0.70;;;0.50;;
5704;SDS011;2877;48.238;11.160;2023-11-25T05:05:08;0.40;;;0.40;;
5704;SDS011;2877;48.238;11.160;2023-11-25T05:07:34;0.43;;;0.43;;
5704;SDS011;2877;48.238;11.160;2023-11-25T05:10:00;3.33;;;0.70;;
5704;SDS011;2877;48.238;11.160;2023-11-25T05:12:27;0.77;;;0.50;;
5704;SDS011;2877;48.238;11.160;2023-11-25T05:14:52;0.60;;;0.50;;
5704;SDS011;2877;48.238;11.160;2023-11-25T05:17:18;0.47;;;0.47;;
5704;SDS011;2877;48.238;11.160;2023-11-25T05:19:44;1.30;;;0.77;;
5704;SDS011;2877;48.238;11.160;2023-11-25T05:22:10;0.50;;;0.50;;
5704;SDS011;2877;48.238;11.160;2023-11-25T05:24:35;2.90;;;0.70;;
5704;SDS011;2877;48.238;11.160;2023-11-25T05:27:01;1.03;;;0.50;;
5704;SDS011;2877;48.238;11.160;2023-11-25T05:29:27;2.77;;;0.40;;
5704;SDS011;2877;48.238;11.160;2023-11-25T05:31:53;0.50;;;0.50;;
5704;SDS011;2877;48.238;11.160;2023-11-25T05:34:19;0.70;;;0.40;;
5704;SDS011;2877;48.238;11.160;2023-11-25T05:36:45;3.03;;;1.20;;
5704;SDS011;2877;48.238;11.160;2023-11-25T05:39:11;7.60;;;0.93;;
5704;SDS011;2877;48.238;11.160;2023-11-25T05:41:42;0.30;;;0.30;;
5704;SDS011;2877;48.238;11.160;2023-11-25T05:44:08;0.97;;;0.40;;
5704;SDS011;2877;48.238;11.160;2023-11-25T05:46:35;2.53;;;0.67;;
5704;SDS011;2877;48.238;11.160;2023-11-25T05:49:02;0.47;;;0.43;;
5704;SDS011;2877;48.238;11.160;2023-11-25T05:51:32;1.33;;;0.53;;
5704;SDS011;2877;48.238;11.160;2023-11-25T05:53:59;5.10;;;0.73;;
5704;SDS011;2877;48.238;11.160;2023-11-25T05:56:25;0.50;;;0.50;;
5704;SDS011;2877;48.238;11.160;2023-11-25T05:58:54;0.70;;;0.50;;
5704;SDS011;2877;48.238;11.160;2023-11-25T06:01:20;2.13;;;0.50;;
5704;SDS011;2877;48.238;11.160;2023-11-25T06:03:47;0.50;;;0.50;;
5704;SDS011;2877;48.238;11.160;2023-11-25T06:06:15;2.13;;;0.57;;
5704;SDS011;2877;48.238;11.160;2023-11-25T06:08:41;0.70;;;0.70;;
5704;SDS011;2877;48.238;11.160;2023-11-25T06:11:07;7.10;;;1.17;;
5704;SDS011;2877;48.238;11.160;2023-11-25T06:13:32;1.23;;;1.07;;
5704;SDS011;2877;48.238;11.160;2023-11-25T06:15:58;0.90;;;0.67;;
5704;SDS011;2877;48.238;11.160;2023-11-25T06:18:24;1.03;;;0.70;;
5704;SDS011;2877;48.238;11.160;2023-11-25T06:20:49;2.60;;;0.63;;
5704;SDS011;2877;48.238;11.160;2023-11-25T06:23:15;1.27;;;0.70;;
5704;SDS011;2877;48.238;11.160;2023-11-25T06:25:41;2.23;;;0.73;;
5704;SDS011;2877;48.238;11.160;2023-11-25T06:28:08;0.60;;;0.60;;
5704;SDS011;2877;48.238;11.160;2023-11-25T06:30:38;0.97;;;0.87;;
5704;SDS011;2877;48.238;11.160;2023-11-25T06:33:04;2.27;;;0.50;;
5704;SDS011;2877;48.238;11.160;2023-11-25T06:35:30;5.13;;;0.70;;
5704;SDS011;2877;48.238;11.160;2023-11-25T06:37:56;0.67;;;0.67;;
5704;SDS011;2877;48.238;11.160;2023-11-25T06:40:21;0.90;;;0.60;;
5704;SDS011;2877;48.238;11.160;2023-11-25T06:42:47;2.30;;;0.60;;
5704;SDS011;2877;48.238;11.160;2023-11-25T06:45:12;0.60;;;0.60;;
5704;SDS011;2877;48.238;11.160;2023-11-25T06:47:39;5.60;;;0.77;;
5704;SDS011;2877;48.238;11.160;2023-11-25T06:50:05;2.10;;;0.50;;
5704;SDS011;2877;48.238;11.160;2023-11-25T06:52:30;1.43;;;0.83;;
5704;SDS011;2877;48.238;11.160;2023-11-25T06:54:56;1.20;;;0.50;;
5704;SDS011;2877;48.238;11.160;2023-11-25T06:57:22;2.43;;;0.70;;
5704;SDS011;2877;48.238;11.160;2023-11-25T06:59:47;4.00;;;0.83;;
5704;SDS011;2877;48.238;11.160;2023-11-25T07:02:13;3.20;;;0.77;;
5704;SDS011;2877;48.238;11.160;2023-11-25T07:04:39;2.53;;;0.80;;
5704;SDS011;2877;48.238;11.160;2023-11-25T07:07:04;3.53;;;0.90;;
5704;SDS011;2877;48.238;11.160;2023-11-25T07:09:30;2.80;;;0.70;;
5704;SDS011;2877;48.238;11.160;2023-11-25T07:11:56;2.97;;;0.60;;
5704;SDS011;2877;48.238;11.160;2023-11-25T07:14:21;0.80;;;0.80;;
5704;SDS011;2877;48.238;11.160;2023-11-25T07:16:47;4.00;;;0.80;;
5704;SDS011;2877;48.238;11.160;2023-11-25T07:19:13;0.63;;;0.60;;
5704;SDS011;2877;48.238;11.160;2023-11-25T07:21:38;1.50;;;0.77;;
5704;SDS011;2877;48.238;11.160;2023-11-25T07:24:04;4.20;;;0.93;;
5704;SDS011;2877;48.238;11.160;2023-11-25T07:26:32;1.10;;;0.70;;
5704;SDS011;2877;48.238;11.160;2023-11-25T07:28:58;1.27;;;0.90;;
5704;SDS011;2877;48.238;11.160;2023-11-25T07:31:23;1.70;;;0.90;;
5704;SDS011;2877;48.238;11.160;2023-11-25T07:33:50;1.40;;;0.60;;
5704;SDS011;2877;48.238;11.160;2023-11-25T07:36:16;1.63;;;0.77;;
5704;SDS011;2877;48.238;11.160;2023-11-25T07:38:41;2.97;;;0.90;;
5704;SDS011;2877;48.238;11.160;2023-11-25T07:41:14;3.53;;;0.90;;
5704;SDS011;2877;48.238;11.160;2023-11-25T07:43:42;2.17;;;0.80;;
5704;SDS011;2877;48.238;11.160;2023-11-25T07:46:08;1.23;;;0.60;;
5704;SDS011;2877;48.238;11.160;2023-11-25T07:48:36;0.77;;;0.53;;
5704;SDS011;2877;48.238;11.160;2023-11-25T07:51:02;0.90;;;0.90;;
5704;SDS011;2877;48.238;11.160;2023-11-25T07:53:27;2.70;;;0.90;;
5704;SDS011;2877;48.238;11.160;2023-11-25T07:55:53;1.43;;;0.90;;
5704;SDS011;2877;48.238;11.160;2023-11-25T07:58:19;2.77;;;1.50;;
5704;SDS011;2877;48.238;11.160;2023-11-25T08:00:47;0.87;;;0.80;;
5704;SDS011;2877;48.238;11.160;2023-11-25T08:03:13;1.00;;;0.77;;
5704;SDS011;2877;48.238;11.160;2023-11-25T08:05:38;3.40;;;1.20;;
5704;SDS011;2877;48.238;11.160;2023-11-25T08:08:04;0.97;;;0.80;;
5704;SDS011;2877;48.238;11.160;2023-11-25T08:10:30;0.97;;;0.60;;
5704;SDS011;2877;48.238;11.160;2023-11-25T08:13:00;0.63;;;0.40;;
5704;SDS011;2877;48.238;11.160;2023-11-25T08:15:26;1.57;;;0.83;;
5704;SDS011;2877;48.238;11.160;2023-11-25T08:17:52;0.60;;;0.60;;
5704;SDS011;2877;48.238;11.160;2023-11-25T08:20:18;2.50;;;1.23;;
5704;SDS011;2877;48.238;11.160;2023-11-25T08:22:46;1.73;;;0.77;;
5704;SDS011;2877;48.238;11.160;2023-11-25T08:25:11;1.00;;;0.70;;
5704;SDS011;2877;48.238;11.160;2023-11-25T08:27:37;4.93;;;1.23;;
5704;SDS011;2877;48.238;11.160;2023-11-25T08:30:04;0.90;;;0.90;;
5704;SDS011;2877;48.238;11.160;2023-11-25T08:32:39;0.60;;;0.60;;
5704;SDS011;2877;48.238;11.160;2023-11-25T08:35:06;1.77;;;1.10;;
5704;SDS011;2877;48.238;11.160;2023-11-25T08:37:34;2.63;;;0.80;;
5704;SDS011;2877;48.238;11.160;2023-11-25T08:40:00;0.63;;;0.63;;
5704;SDS011;2877;48.238;11.160;2023-11-25T08:42:25;0.70;;;0.70;;
5704;SDS011;2877;48.238;11.160;2023-11-25T08:44:53;2.40;;;1.13;;
5704;SDS011;2877;48.238;11.160;2023-11-25T08:47:19;3.10;;;2.07;;
5704;SDS011;2877;48.238;11.160;2023-11-25T08:49:45;1.60;;;0.80;;
5704;SDS011;2877;48.238;11.160;2023-11-25T08:52:16;5.43;;;0.80;;
5704;SDS011;2877;48.238;11.160;2023-11-25T08:54:42;1.07;;;0.97;;
5704;SDS011;2877;48.238;11.160;2023-11-25T08:57:07;1.23;;;0.80;;
5704;SDS011;2877;48.238;11.160;2023-11-25T08:59:33;2.50;;;1.10;;
5704;SDS011;2877;48.238;11.160;2023-11-25T09:01:59;2.10;;;0.87;;
5704;SDS011;2877;48.238;11.160;2023-11-25T09:04:29;2.00;;;0.70;;
5704;SDS011;2877;48.238;11.160;2023-11-25T09:07:00;1.83;;;1.00;;
5704;SDS011;2877;48.238;11.160;2023-11-25T09:09:26;7.40;;;1.13;;
5704;SDS011;2877;48.238;11.160;2023-11-25T09:11:51;0.73;;;0.70;;
5704;SDS011;2877;48.238;11.160;2023-11-25T09:14:19;1.83;;;0.90;;
5704;SDS011;2877;48.238;11.160;2023-11-25T09:16:45;1.90;;;0.83;;
5704;SDS011;2877;48.238;11.160;2023-11-25T09:19:11;1.17;;;0.70;;
5704;SDS011;2877;48.238;11.160;2023-11-25T09:21:38;0.40;;;0.40;;
5704;SDS011;2877;48.238;11.160;2023-11-25T09:24:04;6.30;;;1.13;;
5704;SDS011;2877;48.238;11.160;2023-11-25T09:26:30;4.03;;;1.13;;
5704;SDS011;2877;48.238;11.160;2023-11-25T09:28:55;6.00;;;1.10;;
5704;SDS011;2877;48.238;11.160;2023-11-25T09:31:21;1.77;;;0.90;;
5704;SDS011;2877;48.238;11.160;2023-11-25T09:33:47;1.90;;;1.37;;
5704;SDS011;2877;48.238;11.160;2023-11-25T09:36:14;0.83;;;0.83;;
5704;SDS011;2877;48.238;11.160;2023-11-25T09:38:39;0.60;;;0.60;;
5704;SDS011;2877;48.238;11.160;2023-11-25T09:41:05;3.40;;;1.00;;
5704;SDS011;2877;48.238;11.160;2023-11-25T09:43:31;1.60;;;1.23;;
5704;SDS011;2877;48.238;11.160;2023-11-25T09:45:57;2.93;;;2.20;;
5704;SDS011;2877;48.238;11.160;2023-11-25T09:48:25;2.37;;;1.60;;
5704;SDS011;2877;48.238;11.160;2023-11-25T09:50:52;2.27;;;1.07;;
5704;SDS011;2877;48.238;11.160;2023-11-25T09:53:25;6.43;;;1.40;;
5704;SDS011;2877;48.238;11.160;2023-11-25T09:56:01;1.63;;;1.07;;
5704;SDS011;2877;48.238;11.160;2023-11-25T09:58:29;3.20;;;1.20;;
5704;SDS011;2877;48.238;11.160;2023-11-25T10:00:57;0.70;;;0.60;;
5704;SDS011;2877;48.238;11.160;2023-11-25T10:03:34;2.70;;;1.20;;
5704;SDS011;2877;48.238;11.160;2023-11-25T10:06:01;1.03;;;0.93;;
5704;SDS011;2877;48.238;11.160;2023-11-25T10:08:27;2.30;;;1.47;;
5704;SDS011;2877;48.238;11.160;2023-11-25T10:11:00;4.63;;;1.50;;
5704;SDS011;2877;48.238;11.160;2023-11-25T10:13:37;1.17;;;0.80;;
5704;SDS011;2877;48.238;11.160;2023-11-25T10:16:04;1.27;;;0.60;;
5704;SDS011;2877;48.238;11.160;2023-11-25T10:18:31;3.70;;;1.07;;
5704;SDS011;2877;48.238;11.160;2023-11-25T10:20:57;1.73;;;1.00;;
5704;SDS011;2877;48.238;11.160;2023-11-25T10:23:24;2.30;;;1.20;;
5704;SDS011;2877;48.238;11.160;2023-11-25T10:25:50;3.30;;;1.60;;
5704;SDS011;2877;48.238;11.160;2023-11-25T10:28:24;1.20;;;1.10;;
5704;SDS011;2877;48.238;11.160;2023-11-25T10:30:57;3.10;;;1.40;;
5704;SDS011;2877;48.238;11.160;2023-11-25T10:33:27;1.97;;;1.57;;
5704;SDS011;2877;48.238;11.160;2023-11-25T10:35:53;1.97;;;1.57;;
5704;SDS011;2877;48.238;11.160;2023-11-25T10:38:20;1.37;;;1.27;;
5704;SDS011;2877;48.238;11.160;2023-11-25T10:40:59;2.00;;;1.57;;
5704;SDS011;2877;48.238;11.160;2023-11-25T10:43:28;0.70;;;0.70;;
5704;SDS011;2877;48.238;11.160;2023-11-25T10:46:04;6.87;;;1.50;;
5704;SDS011;2877;48.238;11.160;2023-11-25T10:48:37;3.70;;;1.60;;
5704;SDS011;2877;48.238;11.160;2023-11-25T10:51:07;1.50;;;1.40;;
5704;SDS011;2877;48.238;11.160;2023-11-25T10:53:33;3.00;;;1.50;;
5704;SDS011;2877;48.238;11.160;2023-11-25T10:56:02;2.80;;;1.10;;
5704;SDS011;2877;48.238;11.160;2023-11-25T10:58:29;4.40;;;1.97;;
5704;SDS011;2877;48.238;11.160;2023-11-25T11:00:55;2.00;;;1.37;;
5704;SDS011;2877;48.238;11.160;2023-11-25T11:06:18;3.27;;;1.67;;
5704;SDS011;2877;48.238;11.160;2023-11-25T11:08:47;2.20;;;1.13;;
5704;SDS011;2877;48.238;11.160;2023-11-25T11:11:16;5.00;;;1.40;;
5704;SDS011;2877;48.238;11.160;2023-11-25T11:16:39;1.57;;;1.10;;
5704;SDS011;2877;48.238;11.160;2023-11-25T11:19:07;5.70;;;1.53;;
5704;SDS011;2877;48.238;11.160;2023-11-25T11:21:36;1.60;;;1.50;;
5704;SDS011;2877;48.238;11.160;2023-11-25T11:24:03;2.23;;;1.73;;
5704;SDS011;2877;48.238;11.160;2023-11-25T11:29:30;1.60;;;1.23;;
5704;SDS011;2877;48.238;11.160;2023-11-25T11:32:07;3.30;;;1.30;;
5704;SDS011;2877;48.238;11.160;2023-11-25T11:34:34;2.30;;;1.20;;
5704;SDS011;2877;48.238;11.160;2023-11-25T11:37:01;1.33;;;1.13;;
5704;SDS011;2877;48.238;11.160;2023-11-25T11:50:22;5.07;;;1.67;;
5704;SDS011;2877;48.238;11.160;2023-11-25T11:58:04;5.33;;;1.40;;
5704;SDS011;2877;48.238;11.160;2023-11-25T12:00:47;2.63;;;1.20;;
5704;SDS011;2877;48.238;11.160;2023-11-25T12:03:17;1.93;;;1.20;;
5704;SDS011;2877;48.238;11.160;2023-11-25T12:05:43;11.70;;;2.47;;
5704;SDS011;2877;48.238;11.160;2023-11-25T12:08:09;4.27;;;1.90;;
5704;SDS011;2877;48.238;11.160;2023-11-25T12:10:35;3.53;;;1.27;;
5704;SDS011;2877;48.238;11.160;2023-11-25T12:13:02;1.30;;;1.03;;
5704;SDS011;2877;48.238;11.160;2023-11-25T12:15:28;4.97;;;1.83;;
5704;SDS011;2877;48.238;11.160;2023-11-25T12:17:57;3.00;;;1.23;;
5704;SDS011;2877;48.238;11.160;2023-11-25T12:20:25;4.03;;;1.43;;
5704;SDS011;2877;48.238;11.160;2023-11-25T12:22:54;2.23;;;1.10;;
5704;SDS011;2877;48.238;11.160;2023-11-25T12:25:21;3.73;;;1.20;;
5704;SDS011;2877;48.238;11.160;2023-11-25T12:27:58;3.43;;;1.10;;
5704;SDS011;2877;48.238;11.160;2023-11-25T12:30:29;2.00;;;1.23;;
5704;SDS011;2877;48.238;11.160;2023-11-25T12:32:54;1.37;;;1.00;;
5704;SDS011;2877;48.238;11.160;2023-11-25T12:35:20;3.37;;;1.30;;
5704;SDS011;2877;48.238;11.160;2023-11-25T12:37:48;4.43;;;1.30;;
5704;SDS011;2877;48.238;11.160;2023-11-25T12:42:45;4.57;;;1.83;;
5704;SDS011;2877;48.238;11.160;2023-11-25T12:45:26;6.33;;;1.33;;
5704;SDS011;2877;48.238;11.160;2023-11-25T12:48:28;1.40;;;1.27;;
5704;SDS011;2877;48.238;11.160;2023-11-25T12:51:02;1.93;;;1.37;;
5704;SDS011;2877;48.238;11.160;2023-11-25T12:53:30;3.90;;;1.33;;
5704;SDS011;2877;48.238;11.160;2023-11-25T12:55:56;3.60;;;0.87;;
5704;SDS011;2877;48.238;11.160;2023-11-25T12:58:22;3.00;;;1.50;;
5704;SDS011;2877;48.238;11.160;2023-11-25T13:00:52;2.57;;;1.27;;
5704;SDS011;2877;48.238;11.160;2023-11-25T13:03:28;1.90;;;0.90;;
5704;SDS011;2877;48.238;11.160;2023-11-25T13:05:56;0.93;;;0.93;;
5704;SDS011;2877;48.238;11.160;2023-11-25T13:08:26;4.33;;;1.37;;
5704;SDS011;2877;48.238;11.160;2023-11-25T13:10:56;2.33;;;1.13;;
5704;SDS011;2877;48.238;11.160;2023-11-25T13:13:24;3.27;;;1.00;;
5704;SDS011;2877;48.238;11.160;2023-11-25T13:15:51;1.13;;;0.90;;
5704;SDS011;2877;48.238;11.160;2023-11-25T13:18:19;3.77;;;0.97;;
5704;SDS011;2877;48.238;11.160;2023-11-25T13:20:48;2.70;;;1.23;;
5704;SDS011;2877;48.238;11.160;2023-11-25T13:23:14;1.60;;;1.00;;
5704;SDS011;2877;48.238;11.160;2023-11-25T13:25:41;2.20;;;1.70;;
5704;SDS011;2877;48.238;11.160;2023-11-25T13:28:07;2.00;;;1.20;;
5704;SDS011;2877;48.238;11.160;2023-11-25T13:30:34;2.70;;;1.30;;
5704;SDS011;2877;48.238;11.160;2023-11-25T13:33:00;2.80;;;1.17;;
5704;SDS011;2877;48.238;11.160;2023-11-25T13:35:26;4.03;;;1.43;;
5704;SDS011;2877;48.238;11.160;2023-11-25T13:37:54;6.00;;;2.03;;
5704;SDS011;2877;48.238;11.160;2023-11-25T13:40:20;4.63;;;1.00;;
5704;SDS011;2877;48.238;11.160;2023-11-25T13:42:52;2.47;;;1.50;;
5704;SDS011;2877;48.238;11.160;2023-11-25T13:45:18;1.63;;;0.93;;
5704;SDS011;2877;48.238;11.160;2023-11-25T13:47:44;2.60;;;1.20;;
5704;SDS011;2877;48.238;11.160;2023-11-25T13:50:11;3.80;;;0.80;;
5704;SDS011;2877;48.238;11.160;2023-11-25T13:52:37;1.73;;;1.63;;
5704;SDS011;2877;48.238;11.160;2023-11-25T13:55:03;3.37;;;2.10;;
5704;SDS011;2877;48.238;11.160;2023-11-25T13:57:29;5.23;;;2.53;;
5704;SDS011;2877;48.238;11.160;2023-11-25T13:59:55;5.70;;;2.87;;
5704;SDS011;2877;48.238;11.160;2023-11-25T14:02:20;3.40;;;2.63;;
5704;SDS011;2877;48.238;11.160;2023-11-25T14:04:47;1.90;;;1.50;;
5704;SDS011;2877;48.238;11.160;2023-11-25T14:07:12;2.67;;;1.70;;
5704;SDS011;2877;48.238;11.160;2023-11-25T14:09:39;2.87;;;1.10;;
5704;SDS011;2877;48.238;11.160;2023-11-25T14:12:04;3.60;;;1.20;;
5704;SDS011;2877;48.238;11.160;2023-11-25T14:14:32;1.10;;;1.00;;
5704;SDS011;2877;48.238;11.160;2023-11-25T14:16:57;2.43;;;1.70;;
5704;SDS011;2877;48.238;11.160;2023-11-25T14:19:23;2.40;;;1.23;;
5704;SDS011;2877;48.238;11.160;2023-11-25T14:21:49;3.60;;;2.00;;
5704;SDS011;2877;48.238;11.160;2023-11-25T14:24:14;5.47;;;2.13;;
5704;SDS011;2877;48.238;11.160;2023-11-25T14:26:41;2.10;;;1.30;;
5704;SDS011;2877;48.238;11.160;2023-11-25T14:29:07;4.60;;;2.43;;
5704;SDS011;2877;48.238;11.160;2023-11-25T14:31:32;1.87;;;1.13;;
5704;SDS011;2877;48.238;11.160;2023-11-25T14:33:58;8.60;;;1.80;;
5704;SDS011;2877;48.238;11.160;2023-11-25T14:36:25;1.57;;;1.07;;
5704;SDS011;2877;48.238;11.160;2023-11-25T14:38:51;1.47;;;1.23;;
5704;SDS011;2877;48.238;11.160;2023-11-25T14:41:20;2.10;;;1.10;;
5704;SDS011;2877;48.238;11.160;2023-11-25T14:43:47;1.10;;;1.00;;
5704;SDS011;2877;48.238;11.160;2023-11-25T14:46:14;1.57;;;1.40;;
5704;SDS011;2877;48.238;11.160;2023-11-25T14:48:40;3.17;;;2.00;;
5704;SDS011;2877;48.238;11.160;2023-11-25T14:51:06;6.00;;;2.33;;
5704;SDS011;2877;48.238;11.160;2023-11-25T14:53:31;5.37;;;2.40;;
5704;SDS011;2877;48.238;11.160;2023-11-25T14:55:57;2.07;;;1.03;;
5704;SDS011;2877;48.238;11.160;2023-11-25T14:58:22;0.90;;;0.90;;
5704;SDS011;2877;48.238;11.160;2023-11-25T15:00:50;2.80;;;1.30;;
5704;SDS011;2877;48.238;11.160;2023-11-25T15:03:16;3.03;;;1.53;;
5704;SDS011;2877;48.238;11.160;2023-11-25T15:05:42;5.83;;;2.50;;
5704;SDS011;2877;48.238;11.160;2023-11-25T15:08:09;3.60;;;1.60;;
5704;SDS011;2877;48.238;11.160;2023-11-25T15:10:35;2.17;;;1.10;;
5704;SDS011;2877;48.238;11.160;2023-11-25T15:13:01;2.40;;;1.17;;
5704;SDS011;2877;48.238;11.160;2023-11-25T15:15:27;5.60;;;1.73;;
5704;SDS011;2877;48.238;11.160;2023-11-25T15:17:53;3.00;;;1.60;;
5704;SDS011;2877;48.238;11.160;2023-11-25T15:20:19;7.47;;;2.30;;
5704;SDS011;2877;48.238;11.160;2023-11-25T15:22:47;8.37;;;1.50;;
5704;SDS011;2877;48.238;11.160;2023-11-25T15:25:12;2.17;;;1.10;;